sensor_id;sensor_type;location;lat;lon;timestamp;P1;durP1;ratioP1;P2;durP2;ratioP2
6475;SDS011;3271;51.910;5.840;2024-03-08T00:00:14;18.02;;;12.93;;
6475;SDS011;3271;51.910;5.840;2024-03-08T00:02:40;18.58;;;13.57;;
6475;SDS011;3271;51.910;5.840;2024-03-08T00:05:07;17.67;;;13.95;;
6475;SDS011;3271;51.910;5.840;2024-03-08T00:07:37;17.35;;;12.57;;
6475;SDS011;3271;51.910;5.840;2024-03-08T00:10:03;19.50;;;14.20;;
6475;SDS011;3271;51.910;5.840;2024-03-08T00:12:29;17.30;;;13.98;;
6475;SDS011;3271;51.910;5.840;2024-03-08T00:14:55;20.88;;;13.82;;
6475;SDS011;3271;51.910;5.840;2024-03-08T00:17:21;19.48;;;14.48;;
6475;SDS011;3271;51.910;5.840;2024-03-08T00:19:48;18.52;;;14.02;;
6475;SDS011;3271;51.910;5.840;2024-03-08T00:22:17;16.73;;;13.30;;
6475;SDS011;3271;51.910;5.840;2024-03-08T00:24:43;22.38;;;14.82;;
6475;SDS011;3271;51.910;5.840;2024-03-08T00:27:10;18.02;;;13.50;;
6475;SDS011;3271;51.910;5.840;2024-03-08T00:29:36;17.30;;;13.27;;
6475;SDS011;3271;51.910;5.840;2024-03-08T00:32:05;16.15;;;13.57;;
6475;SDS011;3271;51.910;5.840;2024-03-08T00:34:34;19.40;;;14.55;;
6475;SDS011;3271;51.910;5.840;2024-03-08T00:37:01;19.25;;;13.88;;
6475;SDS011;3271;51.910;5.840;2024-03-08T00:39:27;17.10;;;13.93;;
6475;SDS011;3271;51.910;5.840;2024-03-08T00:41:53;16.38;;;13.70;;
6475;SDS011;3271;51.910;5.840;2024-03-08T00:44:19;17.77;;;13.45;;
6475;SDS011;3271;51.910;5.840;2024-03-08T00:46:45;17.40;;;13.15;;
6475;SDS011;3271;51.910;5.840;2024-03-08T00:49:11;16.80;;;12.35;;
6475;SDS011;3271;51.910;5.840;2024-03-08T00:51:37;16.67;;;13.65;;
6475;SDS011;3271;51.910;5.840;2024-03-08T00:54:03;16.17;;;13.48;;
6475;SDS011;3271;51.910;5.840;2024-03-08T00:56:29;16.42;;;13.20;;
6475;SDS011;3271;51.910;5.840;2024-03-08T00:58:55;16.02;;;12.10;;
6475;SDS011;3271;51.910;5.840;2024-03-08T01:01:21;16.30;;;13.82;;
6475;SDS011;3271;51.910;5.840;2024-03-08T01:03:49;17.52;;;13.85;;
6475;SDS011;3271;51.910;5.840;2024-03-08T01:06:15;16.48;;;14.40;;
6475;SDS011;3271;51.910;5.840;2024-03-08T01:08:41;14.55;;;12.95;;
6475;SDS011;3271;51.910;5.840;2024-03-08T01:11:08;17.00;;;13.40;;
6475;SDS011;3271;51.910;5.840;2024-03-08T01:13:34;14.90;;;13.10;;
6475;SDS011;3271;51.910;5.840;2024-03-08T01:16:01;15.93;;;13.13;;
6475;SDS011;3271;51.910;5.840;2024-03-08T01:18:28;17.88;;;13.90;;
6475;SDS011;3271;51.910;5.840;2024-03-08T01:20:54;16.02;;;13.30;;
6475;SDS011;3271;51.910;5.840;2024-03-08T01:23:20;14.48;;;12.35;;
6475;SDS011;3271;51.910;5.840;2024-03-08T01:25:46;15.38;;;12.65;;
6475;SDS011;3271;51.910;5.840;2024-03-08T01:28:21;17.52;;;13.48;;
6475;SDS011;3271;51.910;5.840;2024-03-08T01:30:47;17.42;;;13.50;;
6475;SDS011;3271;51.910;5.840;2024-03-08T01:33:15;13.32;;;11.38;;
6475;SDS011;3271;51.910;5.840;2024-03-08T01:35:41;15.77;;;12.15;;
6475;SDS011;3271;51.910;5.840;2024-03-08T01:38:07;15.00;;;13.38;;
6475;SDS011;3271;51.910;5.840;2024-03-08T01:40:33;15.02;;;12.38;;
6475;SDS011;3271;51.910;5.840;2024-03-08T01:43:15;14.77;;;13.23;;
6475;SDS011;3271;51.910;5.840;2024-03-08T01:45:40;16.55;;;12.55;;
6475;SDS011;3271;51.910;5.840;2024-03-08T01:48:06;17.02;;;12.63;;
6475;SDS011;3271;51.910;5.840;2024-03-08T01:50:32;15.43;;;12.65;;
6475;SDS011;3271;51.910;5.840;2024-03-08T01:52:58;16.23;;;13.38;;
6475;SDS011;3271;51.910;5.840;2024-03-08T01:55:25;13.40;;;12.00;;
6475;SDS011;3271;51.910;5.840;2024-03-08T01:57:51;17.10;;;13.50;;
6475;SDS011;3271;51.910;5.840;2024-03-08T02:00:17;14.38;;;12.88;;
6475;SDS011;3271;51.910;5.840;2024-03-08T02:02:44;13.82;;;12.00;;
6475;SDS011;3271;51.910;5.840;2024-03-08T02:05:12;14.18;;;12.13;;
6475;SDS011;3271;51.910;5.840;2024-03-08T02:07:40;15.07;;;12.70;;
6475;SDS011;3271;51.910;5.840;2024-03-08T02:10:09;13.75;;;12.30;;
6475;SDS011;3271;51.910;5.840;2024-03-08T02:12:37;16.80;;;13.38;;
6475;SDS011;3271;51.910;5.840;2024-03-08T02:15:03;18.52;;;13.50;;
6475;SDS011;3271;51.910;5.840;2024-03-08T02:17:31;16.85;;;13.70;;
6475;SDS011;3271;51.910;5.840;2024-03-08T02:19:58;15.23;;;12.80;;
6475;SDS011;3271;51.910;5.840;2024-03-08T02:22:26;15.32;;;13.50;;
6475;SDS011;3271;51.910;5.840;2024-03-08T02:24:52;15.00;;;13.23;;
6475;SDS011;3271;51.910;5.840;2024-03-08T02:27:23;19.77;;;12.73;;
6475;SDS011;3271;51.910;5.840;2024-03-08T02:29:49;15.05;;;12.88;;
6475;SDS011;3271;51.910;5.840;2024-03-08T02:32:16;16.20;;;13.93;;
6475;SDS011;3271;51.910;5.840;2024-03-08T02:34:43;16.05;;;13.43;;
6475;SDS011;3271;51.910;5.840;2024-03-08T02:37:09;16.20;;;13.02;;
6475;SDS011;3271;51.910;5.840;2024-03-08T02:39:35;14.35;;;12.88;;
6475;SDS011;3271;51.910;5.840;2024-03-08T02:42:01;15.68;;;13.05;;
6475;SDS011;3271;51.910;5.840;2024-03-08T02:44:27;16.77;;;14.02;;
6475;SDS011;3271;51.910;5.840;2024-03-08T02:46:53;15.80;;;14.13;;
6475;SDS011;3271;51.910;5.840;2024-03-08T02:49:20;13.02;;;11.65;;
6475;SDS011;3271;51.910;5.840;2024-03-08T02:51:46;16.60;;;13.15;;
6475;SDS011;3271;51.910;5.840;2024-03-08T02:54:12;15.77;;;13.27;;
6475;SDS011;3271;51.910;5.840;2024-03-08T02:56:38;15.35;;;13.77;;
6475;SDS011;3271;51.910;5.840;2024-03-08T02:59:04;16.63;;;14.52;;
6475;SDS011;3271;51.910;5.840;2024-03-08T03:01:30;14.27;;;12.80;;
6475;SDS011;3271;51.910;5.840;2024-03-08T03:03:57;15.80;;;13.13;;
6475;SDS011;3271;51.910;5.840;2024-03-08T03:06:23;15.43;;;13.57;;
6475;SDS011;3271;51.910;5.840;2024-03-08T03:08:49;16.27;;;14.52;;
6475;SDS011;3271;51.910;5.840;2024-03-08T03:11:16;17.13;;;13.35;;
6475;SDS011;3271;51.910;5.840;2024-03-08T03:13:42;16.88;;;13.15;;
6475;SDS011;3271;51.910;5.840;2024-03-08T03:16:16;14.98;;;13.25;;
6475;SDS011;3271;51.910;5.840;2024-03-08T03:18:43;15.38;;;12.77;;
6475;SDS011;3271;51.910;5.840;2024-03-08T03:21:10;15.32;;;12.93;;
6475;SDS011;3271;51.910;5.840;2024-03-08T03:23:37;16.48;;;14.23;;
6475;SDS011;3271;51.910;5.840;2024-03-08T03:26:04;14.73;;;13.10;;
6475;SDS011;3271;51.910;5.840;2024-03-08T03:28:32;17.27;;;13.25;;
6475;SDS011;3271;51.910;5.840;2024-03-08T03:30:58;18.42;;;14.05;;
6475;SDS011;3271;51.910;5.840;2024-03-08T03:33:24;14.70;;;12.93;;
6475;SDS011;3271;51.910;5.840;2024-03-08T03:35:50;20.83;;;13.27;;
6475;SDS011;3271;51.910;5.840;2024-03-08T03:38:19;17.27;;;14.13;;
6475;SDS011;3271;51.910;5.840;2024-03-08T03:40:48;14.75;;;12.77;;
6475;SDS011;3271;51.910;5.840;2024-03-08T03:43:17;15.82;;;14.18;;
6475;SDS011;3271;51.910;5.840;2024-03-08T03:45:43;16.17;;;13.45;;
6475;SDS011;3271;51.910;5.840;2024-03-08T03:48:09;14.68;;;13.15;;
6475;SDS011;3271;51.910;5.840;2024-03-08T03:50:35;15.38;;;13.20;;
6475;SDS011;3271;51.910;5.840;2024-03-08T03:53:02;16.30;;;14.13;;
6475;SDS011;3271;51.910;5.840;2024-03-08T03:55:28;16.17;;;13.57;;
6475;SDS011;3271;51.910;5.840;2024-03-08T03:57:54;16.70;;;14.55;;
6475;SDS011;3271;51.910;5.840;2024-03-08T04:00:20;16.83;;;14.73;;
6475;SDS011;3271;51.910;5.840;2024-03-08T04:02:46;16.85;;;14.48;;
6475;SDS011;3271;51.910;5.840;2024-03-08T04:05:12;16.58;;;14.85;;
6475;SDS011;3271;51.910;5.840;2024-03-08T04:07:38;16.08;;;13.77;;
6475;SDS011;3271;51.910;5.840;2024-03-08T04:10:05;15.43;;;13.50;;
6475;SDS011;3271;51.910;5.840;2024-03-08T04:12:35;16.95;;;14.05;;
6475;SDS011;3271;51.910;5.840;2024-03-08T04:15:01;16.17;;;14.38;;
6475;SDS011;3271;51.910;5.840;2024-03-08T04:17:27;14.85;;;13.32;;
6475;SDS011;3271;51.910;5.840;2024-03-08T04:19:53;17.50;;;15.07;;
6475;SDS011;3271;51.910;5.840;2024-03-08T04:22:19;15.38;;;13.77;;
6475;SDS011;3271;51.910;5.840;2024-03-08T04:24:45;16.85;;;15.15;;
6475;SDS011;3271;51.910;5.840;2024-03-08T04:27:12;17.17;;;14.27;;
6475;SDS011;3271;51.910;5.840;2024-03-08T04:29:39;16.15;;;14.02;;
6475;SDS011;3271;51.910;5.840;2024-03-08T04:32:05;17.23;;;15.45;;
6475;SDS011;3271;51.910;5.840;2024-03-08T04:34:34;16.70;;;14.90;;
6475;SDS011;3271;51.910;5.840;2024-03-08T04:37:01;15.55;;;13.93;;
6475;SDS011;3271;51.910;5.840;2024-03-08T04:39:27;19.20;;;15.95;;
6475;SDS011;3271;51.910;5.840;2024-03-08T04:41:54;15.65;;;13.93;;
6475;SDS011;3271;51.910;5.840;2024-03-08T04:44:21;14.43;;;13.02;;
6475;SDS011;3271;51.910;5.840;2024-03-08T04:46:47;17.20;;;14.63;;
6475;SDS011;3271;51.910;5.840;2024-03-08T04:49:13;15.73;;;13.73;;
6475;SDS011;3271;51.910;5.840;2024-03-08T04:51:39;17.10;;;13.27;;
6475;SDS011;3271;51.910;5.840;2024-03-08T04:54:05;15.73;;;14.13;;
6475;SDS011;3271;51.910;5.840;2024-03-08T04:56:31;16.77;;;14.88;;
6475;SDS011;3271;51.910;5.840;2024-03-08T04:58:58;16.25;;;14.05;;
6475;SDS011;3271;51.910;5.840;2024-03-08T05:01:24;18.05;;;16.13;;
6475;SDS011;3271;51.910;5.840;2024-03-08T05:03:51;19.08;;;14.75;;
6475;SDS011;3271;51.910;5.840;2024-03-08T05:06:20;15.88;;;13.93;;
6475;SDS011;3271;51.910;5.840;2024-03-08T05:08:46;16.35;;;14.68;;
6475;SDS011;3271;51.910;5.840;2024-03-08T05:11:12;15.38;;;13.77;;
6475;SDS011;3271;51.910;5.840;2024-03-08T05:13:39;15.48;;;13.32;;
6475;SDS011;3271;51.910;5.840;2024-03-08T05:16:05;15.88;;;13.35;;
6475;SDS011;3271;51.910;5.840;2024-03-08T05:18:32;16.10;;;14.50;;
6475;SDS011;3271;51.910;5.840;2024-03-08T05:20:58;14.73;;;12.55;;
6475;SDS011;3271;51.910;5.840;2024-03-08T05:23:24;17.13;;;14.40;;
6475;SDS011;3271;51.910;5.840;2024-03-08T05:25:50;16.88;;;15.00;;
6475;SDS011;3271;51.910;5.840;2024-03-08T05:28:16;16.25;;;14.30;;
6475;SDS011;3271;51.910;5.840;2024-03-08T05:30:42;17.30;;;14.85;;
6475;SDS011;3271;51.910;5.840;2024-03-08T05:33:08;18.00;;;15.68;;
6475;SDS011;3271;51.910;5.840;2024-03-08T05:35:35;18.60;;;16.70;;
6475;SDS011;3271;51.910;5.840;2024-03-08T05:38:02;18.88;;;17.00;;
6475;SDS011;3271;51.910;5.840;2024-03-08T05:40:28;16.17;;;14.55;;
6475;SDS011;3271;51.910;5.840;2024-03-08T05:42:57;16.27;;;14.68;;
6475;SDS011;3271;51.910;5.840;2024-03-08T05:45:24;17.15;;;14.93;;
6475;SDS011;3271;51.910;5.840;2024-03-08T05:47:50;17.65;;;15.77;;
6475;SDS011;3271;51.910;5.840;2024-03-08T05:50:19;15.50;;;13.75;;
6475;SDS011;3271;51.910;5.840;2024-03-08T05:52:45;15.23;;;13.68;;
6475;SDS011;3271;51.910;5.840;2024-03-08T05:55:14;15.95;;;13.90;;
6475;SDS011;3271;51.910;5.840;2024-03-08T05:57:41;16.92;;;15.13;;
6475;SDS011;3271;51.910;5.840;2024-03-08T06:00:08;18.85;;;15.88;;
6475;SDS011;3271;51.910;5.840;2024-03-08T06:02:35;19.10;;;15.68;;
6475;SDS011;3271;51.910;5.840;2024-03-08T06:05:05;17.00;;;15.23;;
6475;SDS011;3271;51.910;5.840;2024-03-08T06:07:31;18.20;;;15.10;;
6475;SDS011;3271;51.910;5.840;2024-03-08T06:09:57;17.08;;;15.23;;
6475;SDS011;3271;51.910;5.840;2024-03-08T06:12:25;17.33;;;14.75;;
6475;SDS011;3271;51.910;5.840;2024-03-08T06:14:54;16.63;;;13.60;;
6475;SDS011;3271;51.910;5.840;2024-03-08T06:17:20;16.00;;;14.40;;
6475;SDS011;3271;51.910;5.840;2024-03-08T06:19:50;17.00;;;15.18;;
6475;SDS011;3271;51.910;5.840;2024-03-08T06:22:16;16.50;;;14.52;;
6475;SDS011;3271;51.910;5.840;2024-03-08T06:24:43;18.70;;;14.85;;
6475;SDS011;3271;51.910;5.840;2024-03-08T06:27:09;19.15;;;15.77;;
6475;SDS011;3271;51.910;5.840;2024-03-08T06:29:35;18.17;;;15.25;;
6475;SDS011;3271;51.910;5.840;2024-03-08T06:32:01;18.50;;;15.55;;
6475;SDS011;3271;51.910;5.840;2024-03-08T06:34:27;21.77;;;15.45;;
6475;SDS011;3271;51.910;5.840;2024-03-08T06:36:53;17.23;;;14.38;;
6475;SDS011;3271;51.910;5.840;2024-03-08T06:39:25;18.50;;;16.23;;
6475;SDS011;3271;51.910;5.840;2024-03-08T06:41:51;18.15;;;15.75;;
6475;SDS011;3271;51.910;5.840;2024-03-08T06:44:17;19.02;;;16.50;;
6475;SDS011;3271;51.910;5.840;2024-03-08T06:46:46;18.55;;;15.35;;
6475;SDS011;3271;51.910;5.840;2024-03-08T06:49:13;17.67;;;13.65;;
6475;SDS011;3271;51.910;5.840;2024-03-08T06:51:40;17.83;;;15.68;;
6475;SDS011;3271;51.910;5.840;2024-03-08T06:54:06;17.00;;;15.20;;
6475;SDS011;3271;51.910;5.840;2024-03-08T06:56:36;18.00;;;15.02;;
6475;SDS011;3271;51.910;5.840;2024-03-08T06:59:03;17.13;;;15.35;;
6475;SDS011;3271;51.910;5.840;2024-03-08T07:01:29;18.52;;;16.20;;
6475;SDS011;3271;51.910;5.840;2024-03-08T07:03:57;16.05;;;13.13;;
6475;SDS011;3271;51.910;5.840;2024-03-08T07:06:23;18.55;;;15.45;;
6475;SDS011;3271;51.910;5.840;2024-03-08T07:08:50;17.50;;;15.32;;
6475;SDS011;3271;51.910;5.840;2024-03-08T07:11:16;18.25;;;16.00;;
6475;SDS011;3271;51.910;5.840;2024-03-08T07:13:46;17.77;;;15.88;;
6475;SDS011;3271;51.910;5.840;2024-03-08T07:16:12;17.63;;;15.55;;
6475;SDS011;3271;51.910;5.840;2024-03-08T07:18:38;17.77;;;13.95;;
6475;SDS011;3271;51.910;5.840;2024-03-08T07:21:08;17.90;;;15.93;;
6475;SDS011;3271;51.910;5.840;2024-03-08T07:23:34;17.33;;;14.60;;
6475;SDS011;3271;51.910;5.840;2024-03-08T07:26:20;16.85;;;14.77;;
6475;SDS011;3271;51.910;5.840;2024-03-08T07:28:46;18.67;;;16.00;;
6475;SDS011;3271;51.910;5.840;2024-03-08T07:31:12;19.52;;;15.13;;
6475;SDS011;3271;51.910;5.840;2024-03-08T07:33:50;17.20;;;14.82;;
6475;SDS011;3271;51.910;5.840;2024-03-08T07:36:18;17.38;;;15.25;;
6475;SDS011;3271;51.910;5.840;2024-03-08T07:38:44;18.35;;;15.25;;
6475;SDS011;3271;51.910;5.840;2024-03-08T07:41:13;21.00;;;17.23;;
6475;SDS011;3271;51.910;5.840;2024-03-08T07:43:39;19.63;;;16.38;;
6475;SDS011;3271;51.910;5.840;2024-03-08T07:46:05;19.73;;;16.23;;
6475;SDS011;3271;51.910;5.840;2024-03-08T07:48:30;18.67;;;16.60;;
6475;SDS011;3271;51.910;5.840;2024-03-08T07:50:56;18.33;;;16.23;;
6475;SDS011;3271;51.910;5.840;2024-03-08T07:53:22;18.23;;;16.10;;
6475;SDS011;3271;51.910;5.840;2024-03-08T07:55:51;18.20;;;15.90;;
6475;SDS011;3271;51.910;5.840;2024-03-08T07:58:17;18.58;;;14.85;;
6475;SDS011;3271;51.910;5.840;2024-03-08T08:00:43;20.30;;;16.02;;
6475;SDS011;3271;51.910;5.840;2024-03-08T08:03:09;20.38;;;16.75;;
6475;SDS011;3271;51.910;5.840;2024-03-08T08:05:35;19.30;;;17.23;;
6475;SDS011;3271;51.910;5.840;2024-03-08T08:08:04;18.63;;;16.58;;
6475;SDS011;3271;51.910;5.840;2024-03-08T08:10:31;18.83;;;16.95;;
6475;SDS011;3271;51.910;5.840;2024-03-08T08:12:58;19.73;;;16.75;;
6475;SDS011;3271;51.910;5.840;2024-03-08T08:15:24;20.45;;;17.83;;
6475;SDS011;3271;51.910;5.840;2024-03-08T08:17:50;21.52;;;16.88;;
6475;SDS011;3271;51.910;5.840;2024-03-08T08:20:17;19.10;;;17.15;;
6475;SDS011;3271;51.910;5.840;2024-03-08T08:22:43;19.48;;;17.23;;
6475;SDS011;3271;51.910;5.840;2024-03-08T08:25:09;18.88;;;16.27;;
6475;SDS011;3271;51.910;5.840;2024-03-08T08:27:38;21.02;;;18.17;;
6475;SDS011;3271;51.910;5.840;2024-03-08T08:30:05;19.75;;;16.63;;
6475;SDS011;3271;51.910;5.840;2024-03-08T08:32:33;19.80;;;15.65;;
6475;SDS011;3271;51.910;5.840;2024-03-08T08:35:00;19.48;;;16.70;;
6475;SDS011;3271;51.910;5.840;2024-03-08T08:37:27;20.23;;;16.58;;
6475;SDS011;3271;51.910;5.840;2024-03-08T08:39:53;20.77;;;17.05;;
6475;SDS011;3271;51.910;5.840;2024-03-08T08:42:19;18.83;;;15.65;;
6475;SDS011;3271;51.910;5.840;2024-03-08T08:44:45;20.52;;;16.52;;
6475;SDS011;3271;51.910;5.840;2024-03-08T08:47:11;18.13;;;16.23;;
6475;SDS011;3271;51.910;5.840;2024-03-08T08:49:38;30.15;;;26.33;;
6475;SDS011;3271;51.910;5.840;2024-03-08T08:52:04;36.13;;;29.23;;
6475;SDS011;3271;51.910;5.840;2024-03-08T08:54:30;45.78;;;33.40;;
6475;SDS011;3271;51.910;5.840;2024-03-08T08:56:56;22.95;;;18.65;;
6475;SDS011;3271;51.910;5.840;2024-03-08T08:59:23;22.02;;;18.27;;
6475;SDS011;3271;51.910;5.840;2024-03-08T09:01:50;22.08;;;18.02;;
6475;SDS011;3271;51.910;5.840;2024-03-08T09:04:18;21.70;;;18.63;;
6475;SDS011;3271;51.910;5.840;2024-03-08T09:06:44;21.02;;;16.98;;
6475;SDS011;3271;51.910;5.840;2024-03-08T09:09:10;19.38;;;17.30;;
6475;SDS011;3271;51.910;5.840;2024-03-08T09:11:38;22.40;;;16.80;;
6475;SDS011;3271;51.910;5.840;2024-03-08T09:14:06;22.75;;;19.52;;
6475;SDS011;3271;51.910;5.840;2024-03-08T09:16:32;20.33;;;17.00;;
6475;SDS011;3271;51.910;5.840;2024-03-08T09:18:58;18.63;;;15.90;;
6475;SDS011;3271;51.910;5.840;2024-03-08T09:21:24;18.85;;;16.73;;
6475;SDS011;3271;51.910;5.840;2024-03-08T09:23:52;18.38;;;16.50;;
6475;SDS011;3271;51.910;5.840;2024-03-08T09:26:18;19.55;;;15.65;;
6475;SDS011;3271;51.910;5.840;2024-03-08T09:28:45;17.65;;;15.65;;
6475;SDS011;3271;51.910;5.840;2024-03-08T09:31:11;19.83;;;16.90;;
6475;SDS011;3271;51.910;5.840;2024-03-08T09:33:37;19.67;;;17.38;;
6475;SDS011;3271;51.910;5.840;2024-03-08T09:36:04;19.17;;;16.02;;
6475;SDS011;3271;51.910;5.840;2024-03-08T09:38:30;18.60;;;15.88;;
6475;SDS011;3271;51.910;5.840;2024-03-08T09:40:56;17.67;;;15.43;;
6475;SDS011;3271;51.910;5.840;2024-03-08T09:43:23;18.67;;;16.58;;
6475;SDS011;3271;51.910;5.840;2024-03-08T09:45:49;19.45;;;15.90;;
6475;SDS011;3271;51.910;5.840;2024-03-08T09:48:16;18.60;;;15.40;;
6475;SDS011;3271;51.910;5.840;2024-03-08T09:50:44;18.88;;;16.33;;
6475;SDS011;3271;51.910;5.840;2024-03-08T09:53:11;19.20;;;16.10;;
6475;SDS011;3271;51.910;5.840;2024-03-08T09:55:37;20.50;;;16.80;;
6475;SDS011;3271;51.910;5.840;2024-03-08T09:58:07;18.80;;;16.58;;
6475;SDS011;3271;51.910;5.840;2024-03-08T10:00:43;18.90;;;16.90;;
6475;SDS011;3271;51.910;5.840;2024-03-08T10:03:09;18.98;;;16.35;;
6475;SDS011;3271;51.910;5.840;2024-03-08T10:05:35;17.52;;;15.68;;
6475;SDS011;3271;51.910;5.840;2024-03-08T10:08:02;19.30;;;16.15;;
6475;SDS011;3271;51.910;5.840;2024-03-08T10:10:30;19.35;;;15.77;;
6475;SDS011;3271;51.910;5.840;2024-03-08T10:12:56;18.85;;;16.77;;
6475;SDS011;3271;51.910;5.840;2024-03-08T10:15:22;19.42;;;15.82;;
6475;SDS011;3271;51.910;5.840;2024-03-08T10:17:49;19.55;;;16.70;;
6475;SDS011;3271;51.910;5.840;2024-03-08T10:20:15;17.77;;;15.77;;
6475;SDS011;3271;51.910;5.840;2024-03-08T10:22:42;21.73;;;16.77;;
6475;SDS011;3271;51.910;5.840;2024-03-08T10:25:09;17.67;;;14.43;;
6475;SDS011;3271;51.910;5.840;2024-03-08T10:27:36;18.70;;;15.73;;
6475;SDS011;3271;51.910;5.840;2024-03-08T10:30:02;17.83;;;15.93;;
6475;SDS011;3271;51.910;5.840;2024-03-08T10:32:28;17.83;;;14.80;;
6475;SDS011;3271;51.910;5.840;2024-03-08T10:34:54;16.70;;;14.65;;
6475;SDS011;3271;51.910;5.840;2024-03-08T10:37:21;17.73;;;15.30;;
6475;SDS011;3271;51.910;5.840;2024-03-08T10:40:01;17.65;;;14.38;;
6475;SDS011;3271;51.910;5.840;2024-03-08T10:42:35;17.20;;;15.40;;
6475;SDS011;3271;51.910;5.840;2024-03-08T10:45:05;16.58;;;14.52;;
6475;SDS011;3271;51.910;5.840;2024-03-08T10:47:33;16.20;;;14.48;;
6475;SDS011;3271;51.910;5.840;2024-03-08T10:50:09;16.08;;;13.80;;
6475;SDS011;3271;51.910;5.840;2024-03-08T10:52:38;16.15;;;14.48;;
6475;SDS011;3271;51.910;5.840;2024-03-08T10:55:04;27.95;;;23.48;;
6475;SDS011;3271;51.910;5.840;2024-03-08T10:57:37;23.88;;;16.60;;
6475;SDS011;3271;51.910;5.840;2024-03-08T11:00:04;17.20;;;15.00;;
6475;SDS011;3271;51.910;5.840;2024-03-08T11:02:34;17.42;;;14.20;;
6475;SDS011;3271;51.910;5.840;2024-03-08T11:05:02;15.60;;;13.13;;
6475;SDS011;3271;51.910;5.840;2024-03-08T11:07:30;16.20;;;14.52;;
6475;SDS011;3271;51.910;5.840;2024-03-08T11:10:02;15.65;;;13.70;;
6475;SDS011;3271;51.910;5.840;2024-03-08T11:12:36;17.58;;;15.75;;
6475;SDS011;3271;51.910;5.840;2024-03-08T11:15:03;17.67;;;13.90;;
6475;SDS011;3271;51.910;5.840;2024-03-08T11:17:40;15.80;;;12.45;;
6475;SDS011;3271;51.910;5.840;2024-03-08T11:20:10;16.75;;;14.73;;
6475;SDS011;3271;51.910;5.840;2024-03-08T11:28:06;16.42;;;13.95;;
6475;SDS011;3271;51.910;5.840;2024-03-08T11:30:32;16.77;;;14.93;;
6475;SDS011;3271;51.910;5.840;2024-03-08T11:33:00;15.75;;;14.00;;
6475;SDS011;3271;51.910;5.840;2024-03-08T11:35:28;16.83;;;13.88;;
6475;SDS011;3271;51.910;5.840;2024-03-08T11:37:54;15.25;;;12.63;;
6475;SDS011;3271;51.910;5.840;2024-03-08T11:40:20;17.25;;;15.45;;
6475;SDS011;3271;51.910;5.840;2024-03-08T11:42:47;12.75;;;11.05;;
6475;SDS011;3271;51.910;5.840;2024-03-08T11:45:14;18.27;;;12.52;;
6475;SDS011;3271;51.910;5.840;2024-03-08T11:47:42;13.52;;;11.80;;
6475;SDS011;3271;51.910;5.840;2024-03-08T11:50:10;15.00;;;12.77;;
6475;SDS011;3271;51.910;5.840;2024-03-08T11:52:36;13.13;;;11.70;;
6475;SDS011;3271;51.910;5.840;2024-03-08T11:55:02;15.30;;;13.70;;
6475;SDS011;3271;51.910;5.840;2024-03-08T11:57:30;15.55;;;12.77;;
6475;SDS011;3271;51.910;5.840;2024-03-08T11:59:57;13.20;;;11.70;;
6475;SDS011;3271;51.910;5.840;2024-03-08T12:02:23;14.18;;;12.68;;
6475;SDS011;3271;51.910;5.840;2024-03-08T12:04:56;15.30;;;13.32;;
6475;SDS011;3271;51.910;5.840;2024-03-08T12:07:23;13.75;;;12.05;;
6475;SDS011;3271;51.910;5.840;2024-03-08T12:12:41;12.18;;;10.88;;
6475;SDS011;3271;51.910;5.840;2024-03-08T12:15:07;15.95;;;14.30;;
6475;SDS011;3271;51.910;5.840;2024-03-08T12:17:33;16.95;;;14.43;;
6475;SDS011;3271;51.910;5.840;2024-03-08T12:20:10;16.58;;;12.73;;
6475;SDS011;3271;51.910;5.840;2024-03-08T12:22:40;14.57;;;11.77;;
6475;SDS011;3271;51.910;5.840;2024-03-08T12:25:07;15.80;;;13.15;;
6475;SDS011;3271;51.910;5.840;2024-03-08T12:27:35;15.55;;;13.05;;
6475;SDS011;3271;51.910;5.840;2024-03-08T12:32:51;17.67;;;14.93;;
6475;SDS011;3271;51.910;5.840;2024-03-08T12:35:22;15.55;;;12.70;;
6475;SDS011;3271;51.910;5.840;2024-03-08T12:37:49;16.17;;;13.45;;
6475;SDS011;3271;51.910;5.840;2024-03-08T12:40:16;16.70;;;14.85;;
6475;SDS011;3271;51.910;5.840;2024-03-08T12:42:45;14.98;;;13.40;;
6475;SDS011;3271;51.910;5.840;2024-03-08T12:45:14;16.05;;;14.32;;
6475;SDS011;3271;51.910;5.840;2024-03-08T12:47:40;17.30;;;15.07;;
6475;SDS011;3271;51.910;5.840;2024-03-08T12:50:07;15.90;;;14.07;;
6475;SDS011;3271;51.910;5.840;2024-03-08T12:52:33;15.60;;;13.90;;
6475;SDS011;3271;51.910;5.840;2024-03-08T12:55:00;16.15;;;13.48;;
6475;SDS011;3271;51.910;5.840;2024-03-08T12:57:31;19.20;;;15.32;;
6475;SDS011;3271;51.910;5.840;2024-03-08T12:59:58;15.10;;;13.30;;
6475;SDS011;3271;51.910;5.840;2024-03-08T13:02:24;16.83;;;14.55;;
6475;SDS011;3271;51.910;5.840;2024-03-08T13:04:51;16.38;;;12.90;;
6475;SDS011;3271;51.910;5.840;2024-03-08T13:07:25;15.85;;;12.43;;
6475;SDS011;3271;51.910;5.840;2024-03-08T13:09:54;16.40;;;14.30;;
6475;SDS011;3271;51.910;5.840;2024-03-08T13:12:22;15.02;;;13.43;;
6475;SDS011;3271;51.910;5.840;2024-03-08T13:14:48;18.85;;;14.20;;
6475;SDS011;3271;51.910;5.840;2024-03-08T13:17:15;16.65;;;14.82;;
6475;SDS011;3271;51.910;5.840;2024-03-08T13:19:43;19.88;;;16.23;;
6475;SDS011;3271;51.910;5.840;2024-03-08T13:22:09;16.45;;;14.40;;
6475;SDS011;3271;51.910;5.840;2024-03-08T13:24:41;16.42;;;14.73;;
6475;SDS011;3271;51.910;5.840;2024-03-08T13:27:07;17.13;;;14.55;;
6475;SDS011;3271;51.910;5.840;2024-03-08T13:29:47;15.55;;;13.75;;
6475;SDS011;3271;51.910;5.840;2024-03-08T13:32:14;17.05;;;14.95;;
6475;SDS011;3271;51.910;5.840;2024-03-08T13:34:43;15.70;;;14.02;;
6475;SDS011;3271;51.910;5.840;2024-03-08T13:37:12;15.05;;;12.55;;
6475;SDS011;3271;51.910;5.840;2024-03-08T13:39:41;16.30;;;13.95;;
6475;SDS011;3271;51.910;5.840;2024-03-08T13:42:12;16.77;;;13.65;;
6475;SDS011;3271;51.910;5.840;2024-03-08T13:44:43;17.45;;;14.85;;
6475;SDS011;3271;51.910;5.840;2024-03-08T13:47:10;19.10;;;13.82;;
6475;SDS011;3271;51.910;5.840;2024-03-08T13:49:37;16.33;;;14.00;;
6475;SDS011;3271;51.910;5.840;2024-03-08T13:52:03;17.60;;;13.88;;
6475;SDS011;3271;51.910;5.840;2024-03-08T13:54:29;17.75;;;13.95;;
6475;SDS011;3271;51.910;5.840;2024-03-08T13:56:56;16.83;;;14.55;;
6475;SDS011;3271;51.910;5.840;2024-03-08T13:59:22;17.23;;;14.55;;
6475;SDS011;3271;51.910;5.840;2024-03-08T14:01:48;15.75;;;14.13;;
6475;SDS011;3271;51.910;5.840;2024-03-08T14:04:14;15.82;;;13.82;;
6475;SDS011;3271;51.910;5.840;2024-03-08T14:06:43;15.93;;;13.75;;
6475;SDS011;3271;51.910;5.840;2024-03-08T14:09:12;17.33;;;14.57;;
6475;SDS011;3271;51.910;5.840;2024-03-08T14:11:42;15.35;;;13.07;;
6475;SDS011;3271;51.910;5.840;2024-03-08T14:14:09;16.83;;;14.02;;
6475;SDS011;3271;51.910;5.840;2024-03-08T14:16:38;16.42;;;13.93;;
6475;SDS011;3271;51.910;5.840;2024-03-08T14:19:04;18.00;;;15.77;;
6475;SDS011;3271;51.910;5.840;2024-03-08T14:21:31;18.52;;;14.70;;
6475;SDS011;3271;51.910;5.840;2024-03-08T14:23:57;14.30;;;12.80;;
6475;SDS011;3271;51.910;5.840;2024-03-08T14:26:23;17.05;;;14.00;;
6475;SDS011;3271;51.910;5.840;2024-03-08T14:28:49;15.70;;;14.05;;
6475;SDS011;3271;51.910;5.840;2024-03-08T14:31:19;15.82;;;14.13;;
6475;SDS011;3271;51.910;5.840;2024-03-08T14:33:45;15.23;;;13.63;;
6475;SDS011;3271;51.910;5.840;2024-03-08T14:36:14;15.90;;;12.40;;
6475;SDS011;3271;51.910;5.840;2024-03-08T14:38:42;15.65;;;14.05;;
6475;SDS011;3271;51.910;5.840;2024-03-08T14:41:08;15.52;;;12.88;;
6475;SDS011;3271;51.910;5.840;2024-03-08T14:43:34;15.55;;;13.50;;
6475;SDS011;3271;51.910;5.840;2024-03-08T14:46:01;14.07;;;12.40;;
6475;SDS011;3271;51.910;5.840;2024-03-08T14:48:28;16.42;;;14.00;;
6475;SDS011;3271;51.910;5.840;2024-03-08T14:50:54;15.02;;;13.10;;
6475;SDS011;3271;51.910;5.840;2024-03-08T14:53:20;15.90;;;14.05;;
6475;SDS011;3271;51.910;5.840;2024-03-08T14:55:46;16.45;;;14.75;;
6475;SDS011;3271;51.910;5.840;2024-03-08T14:58:13;13.82;;;12.35;;